sensor_id;sensor_type;location;lat;lon;timestamp;P1;durP1;ratioP1;P2;durP2;ratioP2
37903;SDS011;23738;50.422;18.758;2022-11-28T00:03:57;89.50;;;40.43;;
37903;SDS011;23738;50.422;18.758;2022-11-28T00:06:24;78.17;;;38.40;;
37903;SDS011;23738;50.422;18.758;2022-11-28T00:08:50;89.30;;;40.10;;
37903;SDS011;23738;50.422;18.758;2022-11-28T00:11:17;83.90;;;38.63;;
37903;SDS011;23738;50.422;18.758;2022-11-28T00:13:43;86.03;;;39.07;;
37903;SDS011;23738;50.422;18.758;2022-11-28T00:16:13;79.83;;;35.67;;
37903;SDS011;23738;50.422;18.758;2022-11-28T00:18:40;72.13;;;32.97;;
37903;SDS011;23738;50.422;18.758;2022-11-28T00:21:08;72.03;;;33.77;;
37903;SDS011;23738;50.422;18.758;2022-11-28T00:23:36;79.73;;;33.80;;
37903;SDS011;23738;50.422;18.758;2022-11-28T00:26:04;72.60;;;33.90;;
37903;SDS011;23738;50.422;18.758;2022-11-28T00:33:47;64.47;;;31.90;;
37903;SDS011;23738;50.422;18.758;2022-11-28T00:36:13;67.87;;;31.90;;
37903;SDS011;23738;50.422;18.758;2022-11-28T00:38:40;56.40;;;31.27;;
37903;SDS011;23738;50.422;18.758;2022-11-28T00:41:07;62.53;;;30.53;;
37903;SDS011;23738;50.422;18.758;2022-11-28T00:43:36;62.53;;;31.67;;
37903;SDS011;23738;50.422;18.758;2022-11-28T00:46:02;70.93;;;36.47;;
37903;SDS011;23738;50.422;18.758;2022-11-28T00:48:29;64.73;;;32.43;;
37903;SDS011;23738;50.422;18.758;2022-11-28T00:51:03;73.53;;;35.07;;
37903;SDS011;23738;50.422;18.758;2022-11-28T00:53:36;63.33;;;31.77;;
37903;SDS011;23738;50.422;18.758;2022-11-28T00:56:05;54.47;;;29.20;;
37903;SDS011;23738;50.422;18.758;2022-11-28T00:58:33;61.20;;;31.70;;
37903;SDS011;23738;50.422;18.758;2022-11-28T01:01:00;60.90;;;30.73;;
37903;SDS011;23738;50.422;18.758;2022-11-28T01:03:45;58.93;;;28.43;;
37903;SDS011;23738;50.422;18.758;2022-11-28T01:06:12;54.97;;;26.77;;
37903;SDS011;23738;50.422;18.758;2022-11-28T01:08:46;59.40;;;27.13;;
37903;SDS011;23738;50.422;18.758;2022-11-28T01:11:12;54.37;;;26.53;;
37903;SDS011;23738;50.422;18.758;2022-11-28T01:13:38;46.20;;;23.40;;
37903;SDS011;23738;50.422;18.758;2022-11-28T01:16:05;49.97;;;26.03;;
37903;SDS011;23738;50.422;18.758;2022-11-28T01:18:32;45.97;;;25.00;;
37903;SDS011;23738;50.422;18.758;2022-11-28T01:20:58;53.37;;;25.73;;
37903;SDS011;23738;50.422;18.758;2022-11-28T01:23:24;54.07;;;26.97;;
37903;SDS011;23738;50.422;18.758;2022-11-28T01:25:50;40.97;;;23.60;;
37903;SDS011;23738;50.422;18.758;2022-11-28T01:28:15;55.73;;;28.07;;
37903;SDS011;23738;50.422;18.758;2022-11-28T01:30:41;51.27;;;26.23;;
37903;SDS011;23738;50.422;18.758;2022-11-28T01:33:07;58.60;;;30.10;;
37903;SDS011;23738;50.422;18.758;2022-11-28T01:35:33;50.60;;;27.53;;
37903;SDS011;23738;50.422;18.758;2022-11-28T01:37:59;61.87;;;27.50;;
37903;SDS011;23738;50.422;18.758;2022-11-28T01:40:24;56.73;;;27.17;;
37903;SDS011;23738;50.422;18.758;2022-11-28T01:42:50;51.50;;;25.30;;
37903;SDS011;23738;50.422;18.758;2022-11-28T01:45:23;58.23;;;27.97;;
37903;SDS011;23738;50.422;18.758;2022-11-28T01:47:55;51.77;;;27.13;;
37903;SDS011;23738;50.422;18.758;2022-11-28T01:50:24;50.27;;;26.90;;
37903;SDS011;23738;50.422;18.758;2022-11-28T01:52:54;64.07;;;32.30;;
37903;SDS011;23738;50.422;18.758;2022-11-28T01:55:24;57.23;;;28.67;;
37903;SDS011;23738;50.422;18.758;2022-11-28T01:57:55;55.77;;;26.70;;
37903;SDS011;23738;50.422;18.758;2022-11-28T02:00:21;56.80;;;27.07;;
37903;SDS011;23738;50.422;18.758;2022-11-28T02:02:49;51.83;;;27.50;;
37903;SDS011;23738;50.422;18.758;2022-11-28T02:05:24;50.77;;;26.37;;
37903;SDS011;23738;50.422;18.758;2022-11-28T02:07:50;60.43;;;29.47;;
37903;SDS011;23738;50.422;18.758;2022-11-28T02:10:19;63.40;;;32.63;;
37903;SDS011;23738;50.422;18.758;2022-11-28T02:18:50;59.93;;;29.73;;
37903;SDS011;23738;50.422;18.758;2022-11-28T02:21:40;61.75;;;30.75;;
37903;SDS011;23738;50.422;18.758;2022-11-28T02:27:40;75.55;;;35.15;;
37903;SDS011;23738;50.422;18.758;2022-11-28T02:30:25;72.30;;;36.87;;
37903;SDS011;23738;50.422;18.758;2022-11-28T02:41:31;69.07;;;34.33;;
37903;SDS011;23738;50.422;18.758;2022-11-28T02:44:15;79.72;;;40.52;;
37903;SDS011;23738;50.422;18.758;2022-11-28T02:49:33;80.17;;;42.03;;
37903;SDS011;23738;50.422;18.758;2022-11-28T02:52:16;82.40;;;39.93;;
37903;SDS011;23738;50.422;18.758;2022-11-28T02:54:52;86.17;;;43.33;;
37903;SDS011;23738;50.422;18.758;2022-11-28T02:57:20;79.00;;;39.87;;
37903;SDS011;23738;50.422;18.758;2022-11-28T02:59:47;80.53;;;38.57;;
37903;SDS011;23738;50.422;18.758;2022-11-28T03:02:18;84.57;;;43.20;;
37903;SDS011;23738;50.422;18.758;2022-11-28T03:04:54;80.90;;;42.37;;
37903;SDS011;23738;50.422;18.758;2022-11-28T03:16:44;72.33;;;36.53;;
37903;SDS011;23738;50.422;18.758;2022-11-28T03:19:22;70.00;;;34.83;;
37903;SDS011;23738;50.422;18.758;2022-11-28T03:24:52;75.90;;;39.67;;
37903;SDS011;23738;50.422;18.758;2022-11-28T03:30:21;82.10;;;40.77;;
37903;SDS011;23738;50.422;18.758;2022-11-28T03:32:56;65.03;;;33.63;;
37903;SDS011;23738;50.422;18.758;2022-11-28T03:35:26;65.23;;;32.97;;
37903;SDS011;23738;50.422;18.758;2022-11-28T03:38:03;64.33;;;32.00;;
37903;SDS011;23738;50.422;18.758;2022-11-28T03:40:38;62.10;;;32.13;;
37903;SDS011;23738;50.422;18.758;2022-11-28T03:43:18;68.73;;;33.17;;
37903;SDS011;23738;50.422;18.758;2022-11-28T03:45:44;71.10;;;35.87;;
37903;SDS011;23738;50.422;18.758;2022-11-28T03:48:29;67.60;;;38.13;;
37903;SDS011;23738;50.422;18.758;2022-11-28T03:51:08;65.13;;;34.93;;
37903;SDS011;23738;50.422;18.758;2022-11-28T03:53:41;67.90;;;32.17;;
37903;SDS011;23738;50.422;18.758;2022-11-28T03:59:15;61.27;;;31.47;;
37903;SDS011;23738;50.422;18.758;2022-11-28T04:04:54;64.00;;;35.90;;
37903;SDS011;23738;50.422;18.758;2022-11-28T04:07:37;69.37;;;36.33;;
37903;SDS011;23738;50.422;18.758;2022-11-28T04:12:52;66.07;;;31.23;;
37903;SDS011;23738;50.422;18.758;2022-11-28T04:18:28;57.03;;;30.60;;
37903;SDS011;23738;50.422;18.758;2022-11-28T04:23:59;64.03;;;34.80;;
37903;SDS011;23738;50.422;18.758;2022-11-28T04:26:32;67.40;;;37.13;;
37903;SDS011;23738;50.422;18.758;2022-11-28T04:29:02;65.23;;;35.87;;
37903;SDS011;23738;50.422;18.758;2022-11-28T04:31:34;59.90;;;32.10;;
37903;SDS011;23738;50.422;18.758;2022-11-28T04:34:06;65.43;;;32.53;;
37903;SDS011;23738;50.422;18.758;2022-11-28T04:36:33;56.13;;;29.17;;
37903;SDS011;23738;50.422;18.758;2022-11-28T04:39:03;52.00;;;29.87;;
37903;SDS011;23738;50.422;18.758;2022-11-28T04:41:35;53.83;;;30.23;;
37903;SDS011;23738;50.422;18.758;2022-11-28T04:44:08;57.57;;;32.53;;
37903;SDS011;23738;50.422;18.758;2022-11-28T04:46:50;57.83;;;33.77;;
37903;SDS011;23738;50.422;18.758;2022-11-28T04:49:18;58.47;;;32.37;;
37903;SDS011;23738;50.422;18.758;2022-11-28T04:52:05;54.27;;;29.33;;
37903;SDS011;23738;50.422;18.758;2022-11-28T04:54:23;57.50;;;28.67;;
37903;SDS011;23738;50.422;18.758;2022-11-28T04:56:58;53.80;;;28.33;;
37903;SDS011;23738;50.422;18.758;2022-11-28T04:59:23;44.60;;;26.30;;
37903;SDS011;23738;50.422;18.758;2022-11-28T05:01:51;52.97;;;29.57;;
37903;SDS011;23738;50.422;18.758;2022-11-28T05:04:19;50.77;;;29.37;;
37903;SDS011;23738;50.422;18.758;2022-11-28T05:06:45;48.27;;;28.17;;
37903;SDS011;23738;50.422;18.758;2022-11-28T05:09:12;52.87;;;28.17;;
37903;SDS011;23738;50.422;18.758;2022-11-28T05:11:38;47.27;;;25.60;;
37903;SDS011;23738;50.422;18.758;2022-11-28T05:14:04;46.23;;;25.20;;
37903;SDS011;23738;50.422;18.758;2022-11-28T05:16:30;46.53;;;24.03;;
37903;SDS011;23738;50.422;18.758;2022-11-28T05:18:56;51.13;;;27.70;;
37903;SDS011;23738;50.422;18.758;2022-11-28T05:21:23;58.97;;;32.37;;
37903;SDS011;23738;50.422;18.758;2022-11-28T05:23:49;59.00;;;31.97;;
37903;SDS011;23738;50.422;18.758;2022-11-28T05:26:16;58.47;;;33.50;;
37903;SDS011;23738;50.422;18.758;2022-11-28T05:28:44;49.20;;;28.87;;
37903;SDS011;23738;50.422;18.758;2022-11-28T05:31:14;43.37;;;25.53;;
37903;SDS011;23738;50.422;18.758;2022-11-28T05:33:40;43.07;;;24.00;;
37903;SDS011;23738;50.422;18.758;2022-11-28T05:36:06;45.23;;;23.43;;
37903;SDS011;23738;50.422;18.758;2022-11-28T05:38:35;38.70;;;23.50;;
37903;SDS011;23738;50.422;18.758;2022-11-28T05:41:02;40.90;;;25.00;;
37903;SDS011;23738;50.422;18.758;2022-11-28T05:43:29;45.30;;;25.30;;
37903;SDS011;23738;50.422;18.758;2022-11-28T05:45:56;41.90;;;26.73;;
37903;SDS011;23738;50.422;18.758;2022-11-28T05:48:23;45.57;;;27.50;;
37903;SDS011;23738;50.422;18.758;2022-11-28T05:50:49;47.90;;;26.30;;
37903;SDS011;23738;50.422;18.758;2022-11-28T05:53:16;44.93;;;23.50;;
37903;SDS011;23738;50.422;18.758;2022-11-28T05:55:44;43.23;;;23.27;;
37903;SDS011;23738;50.422;18.758;2022-11-28T05:58:11;40.13;;;24.30;;
37903;SDS011;23738;50.422;18.758;2022-11-28T06:00:36;41.77;;;24.03;;
37903;SDS011;23738;50.422;18.758;2022-11-28T06:03:03;49.13;;;26.53;;
37903;SDS011;23738;50.422;18.758;2022-11-28T06:05:29;47.57;;;27.93;;
37903;SDS011;23738;50.422;18.758;2022-11-28T06:07:56;49.30;;;28.10;;
37903;SDS011;23738;50.422;18.758;2022-11-28T06:10:24;56.00;;;28.03;;
37903;SDS011;23738;50.422;18.758;2022-11-28T06:12:49;41.40;;;23.90;;
37903;SDS011;23738;50.422;18.758;2022-11-28T06:15:15;42.33;;;23.07;;
37903;SDS011;23738;50.422;18.758;2022-11-28T06:17:41;40.00;;;22.97;;
37903;SDS011;23738;50.422;18.758;2022-11-28T06:20:07;40.80;;;22.60;;
37903;SDS011;23738;50.422;18.758;2022-11-28T06:22:33;46.03;;;24.80;;
37903;SDS011;23738;50.422;18.758;2022-11-28T06:24:59;46.13;;;25.47;;
37903;SDS011;23738;50.422;18.758;2022-11-28T06:27:26;44.67;;;26.57;;
37903;SDS011;23738;50.422;18.758;2022-11-28T06:29:52;43.63;;;26.20;;
37903;SDS011;23738;50.422;18.758;2022-11-28T06:32:18;45.37;;;26.50;;
37903;SDS011;23738;50.422;18.758;2022-11-28T06:34:44;46.57;;;24.63;;
37903;SDS011;23738;50.422;18.758;2022-11-28T06:37:10;36.97;;;22.73;;
37903;SDS011;23738;50.422;18.758;2022-11-28T06:39:35;45.50;;;22.77;;
37903;SDS011;23738;50.422;18.758;2022-11-28T06:42:01;42.67;;;22.77;;
37903;SDS011;23738;50.422;18.758;2022-11-28T06:44:27;40.03;;;22.53;;
37903;SDS011;23738;50.422;18.758;2022-11-28T06:46:53;43.13;;;24.83;;
37903;SDS011;23738;50.422;18.758;2022-11-28T06:49:19;46.17;;;23.97;;
37903;SDS011;23738;50.422;18.758;2022-11-28T06:51:45;42.30;;;24.90;;
37903;SDS011;23738;50.422;18.758;2022-11-28T06:54:11;41.87;;;24.37;;
37903;SDS011;23738;50.422;18.758;2022-11-28T06:56:38;40.37;;;23.53;;
37903;SDS011;23738;50.422;18.758;2022-11-28T06:59:05;38.20;;;22.87;;
37903;SDS011;23738;50.422;18.758;2022-11-28T07:01:31;40.73;;;22.00;;
37903;SDS011;23738;50.422;18.758;2022-11-28T07:03:58;49.67;;;26.67;;
37903;SDS011;23738;50.422;18.758;2022-11-28T07:06:26;55.27;;;28.77;;
37903;SDS011;23738;50.422;18.758;2022-11-28T07:08:54;66.33;;;33.73;;
37903;SDS011;23738;50.422;18.758;2022-11-28T07:11:26;67.80;;;32.33;;
37903;SDS011;23738;50.422;18.758;2022-11-28T07:13:55;67.33;;;34.13;;
37903;SDS011;23738;50.422;18.758;2022-11-28T07:16:23;61.80;;;32.03;;
37903;SDS011;23738;50.422;18.758;2022-11-28T07:18:52;56.93;;;28.27;;
37903;SDS011;23738;50.422;18.758;2022-11-28T07:21:20;54.33;;;28.67;;
37903;SDS011;23738;50.422;18.758;2022-11-28T07:23:46;53.00;;;27.80;;
37903;SDS011;23738;50.422;18.758;2022-11-28T07:26:14;60.03;;;31.43;;
37903;SDS011;23738;50.422;18.758;2022-11-28T07:28:42;57.80;;;30.50;;
37903;SDS011;23738;50.422;18.758;2022-11-28T07:31:11;54.57;;;30.83;;
37903;SDS011;23738;50.422;18.758;2022-11-28T07:33:52;60.27;;;33.03;;
37903;SDS011;23738;50.422;18.758;2022-11-28T07:36:22;57.93;;;29.27;;
37903;SDS011;23738;50.422;18.758;2022-11-28T07:38:51;56.77;;;28.83;;
37903;SDS011;23738;50.422;18.758;2022-11-28T07:41:19;62.20;;;30.07;;
37903;SDS011;23738;50.422;18.758;2022-11-28T07:43:47;61.07;;;31.10;;
37903;SDS011;23738;50.422;18.758;2022-11-28T07:46:15;66.33;;;35.50;;
37903;SDS011;23738;50.422;18.758;2022-11-28T07:48:42;70.73;;;34.73;;
37903;SDS011;23738;50.422;18.758;2022-11-28T07:51:09;69.30;;;35.90;;
37903;SDS011;23738;50.422;18.758;2022-11-28T07:53:40;69.40;;;37.43;;
37903;SDS011;23738;50.422;18.758;2022-11-28T07:56:08;70.83;;;35.40;;
37903;SDS011;23738;50.422;18.758;2022-11-28T07:58:39;65.33;;;32.93;;
37903;SDS011;23738;50.422;18.758;2022-11-28T08:01:16;67.80;;;34.63;;
37903;SDS011;23738;50.422;18.758;2022-11-28T08:03:46;68.23;;;35.83;;
37903;SDS011;23738;50.422;18.758;2022-11-28T08:06:13;82.30;;;39.73;;
37903;SDS011;23738;50.422;18.758;2022-11-28T08:08:40;82.07;;;40.33;;
37903;SDS011;23738;50.422;18.758;2022-11-28T08:11:07;77.07;;;41.97;;
37903;SDS011;23738;50.422;18.758;2022-11-28T08:13:35;80.63;;;41.17;;
37903;SDS011;23738;50.422;18.758;2022-11-28T08:16:05;80.93;;;38.93;;
37903;SDS011;23738;50.422;18.758;2022-11-28T08:18:35;75.77;;;37.43;;
37903;SDS011;23738;50.422;18.758;2022-11-28T08:21:05;83.80;;;40.87;;
37903;SDS011;23738;50.422;18.758;2022-11-28T08:23:34;80.97;;;39.07;;
37903;SDS011;23738;50.422;18.758;2022-11-28T08:26:02;83.80;;;45.03;;
37903;SDS011;23738;50.422;18.758;2022-11-28T08:28:33;81.47;;;43.60;;
37903;SDS011;23738;50.422;18.758;2022-11-28T08:31:07;80.30;;;46.37;;
37903;SDS011;23738;50.422;18.758;2022-11-28T08:33:39;85.27;;;45.17;;
37903;SDS011;23738;50.422;18.758;2022-11-28T08:36:06;88.80;;;40.13;;
37903;SDS011;23738;50.422;18.758;2022-11-28T08:38:35;81.77;;;37.93;;
37903;SDS011;23738;50.422;18.758;2022-11-28T08:41:03;77.13;;;38.80;;
37903;SDS011;23738;50.422;18.758;2022-11-28T08:43:35;80.90;;;42.03;;
37903;SDS011;23738;50.422;18.758;2022-11-28T08:46:05;84.43;;;45.13;;
37903;SDS011;23738;50.422;18.758;2022-11-28T08:48:35;71.83;;;40.47;;
37903;SDS011;23738;50.422;18.758;2022-11-28T08:51:02;77.90;;;42.87;;
37903;SDS011;23738;50.422;18.758;2022-11-28T08:53:28;74.03;;;37.33;;
37903;SDS011;23738;50.422;18.758;2022-11-28T08:55:55;66.93;;;35.43;;
37903;SDS011;23738;50.422;18.758;2022-11-28T08:58:21;72.67;;;36.70;;
37903;SDS011;23738;50.422;18.758;2022-11-28T09:00:47;66.90;;;36.03;;
37903;SDS011;23738;50.422;18.758;2022-11-28T09:03:13;66.60;;;37.53;;
37903;SDS011;23738;50.422;18.758;2022-11-28T09:05:42;85.47;;;43.83;;
37903;SDS011;23738;50.422;18.758;2022-11-28T09:08:10;88.17;;;46.60;;
37903;SDS011;23738;50.422;18.758;2022-11-28T09:10:37;80.27;;;44.80;;
37903;SDS011;23738;50.422;18.758;2022-11-28T09:13:05;83.63;;;44.77;;
37903;SDS011;23738;50.422;18.758;2022-11-28T09:15:32;76.00;;;39.33;;
37903;SDS011;23738;50.422;18.758;2022-11-28T09:17:58;78.27;;;40.77;;
37903;SDS011;23738;50.422;18.758;2022-11-28T09:20:24;71.33;;;39.27;;
37903;SDS011;23738;50.422;18.758;2022-11-28T09:22:50;81.57;;;39.63;;
37903;SDS011;23738;50.422;18.758;2022-11-28T09:25:16;77.13;;;42.77;;
37903;SDS011;23738;50.422;18.758;2022-11-28T09:27:42;82.97;;;45.33;;
37903;SDS011;23738;50.422;18.758;2022-11-28T09:30:10;82.77;;;46.80;;
37903;SDS011;23738;50.422;18.758;2022-11-28T09:32:36;82.97;;;44.77;;
37903;SDS011;23738;50.422;18.758;2022-11-28T09:35:03;78.90;;;40.17;;
37903;SDS011;23738;50.422;18.758;2022-11-28T09:37:29;74.80;;;39.53;;
37903;SDS011;23738;50.422;18.758;2022-11-28T09:39:55;74.40;;;37.97;;
37903;SDS011;23738;50.422;18.758;2022-11-28T09:42:24;74.70;;;38.50;;
37903;SDS011;23738;50.422;18.758;2022-11-28T09:44:59;79.53;;;43.37;;
37903;SDS011;23738;50.422;18.758;2022-11-28T09:47:31;80.03;;;43.03;;
37903;SDS011;23738;50.422;18.758;2022-11-28T09:50:02;76.30;;;40.00;;
37903;SDS011;23738;50.422;18.758;2022-11-28T09:52:52;74.17;;;40.50;;
37903;SDS011;23738;50.422;18.758;2022-11-28T09:55:45;76.50;;;39.13;;
37903;SDS011;23738;50.422;18.758;2022-11-28T09:58:20;78.90;;;38.93;;
37903;SDS011;23738;50.422;18.758;2022-11-28T10:01:02;71.77;;;39.47;;
37903;SDS011;23738;50.422;18.758;2022-11-28T10:03:54;77.43;;;43.47;;
37903;SDS011;23738;50.422;18.758;2022-11-28T10:12:42;82.37;;;47.10;;
37903;SDS011;23738;50.422;18.758;2022-11-28T10:15:28;83.00;;;41.83;;
37903;SDS011;23738;50.422;18.758;2022-11-28T10:18:08;80.80;;;41.13;;
37903;SDS011;23738;50.422;18.758;2022-11-28T10:20:55;73.90;;;39.63;;
37903;SDS011;23738;50.422;18.758;2022-11-28T10:23:37;79.00;;;44.97;;
37903;SDS011;23738;50.422;18.758;2022-11-28T10:26:11;77.43;;;45.17;;
37903;SDS011;23738;50.422;18.758;2022-11-28T10:28:51;80.60;;;46.83;;
37903;SDS011;23738;50.422;18.758;2022-11-28T10:31:32;84.33;;;48.57;;
37903;SDS011;23738;50.422;18.758;2022-11-28T10:39:55;84.77;;;45.23;;
37903;SDS011;23738;50.422;18.758;2022-11-28T10:42:50;104.92;;;54.98;;
37903;SDS011;23738;50.422;18.758;2022-11-28T10:45:27;101.77;;;50.77;;
37903;SDS011;23738;50.422;18.758;2022-11-28T10:48:24;90.87;;;50.77;;
37903;SDS011;23738;50.422;18.758;2022-11-28T10:54:09;81.77;;;41.33;;
37903;SDS011;23738;50.422;18.758;2022-11-28T10:56:51;80.30;;;42.30;;
37903;SDS011;23738;50.422;18.758;2022-11-28T11:02:40;89.57;;;47.93;;
37903;SDS011;23738;50.422;18.758;2022-11-28T11:05:34;84.93;;;47.00;;
37903;SDS011;23738;50.422;18.758;2022-11-28T11:07:54;86.00;;;48.90;;
37903;SDS011;23738;50.422;18.758;2022-11-28T11:10:38;83.67;;;47.33;;
37903;SDS011;23738;50.422;18.758;2022-11-28T11:13:13;74.13;;;39.37;;
37903;SDS011;23738;50.422;18.758;2022-11-28T11:15:48;75.90;;;38.33;;
37903;SDS011;23738;50.422;18.758;2022-11-28T11:26:43;82.50;;;44.00;;
37903;SDS011;23738;50.422;18.758;2022-11-28T11:31:54;70.17;;;36.17;;
37903;SDS011;23738;50.422;18.758;2022-11-28T11:34:23;81.37;;;37.87;;
37903;SDS011;23738;50.422;18.758;2022-11-28T11:36:51;64.97;;;36.67;;
37903;SDS011;23738;50.422;18.758;2022-11-28T11:39:23;88.10;;;45.83;;
37903;SDS011;23738;50.422;18.758;2022-11-28T11:44:34;84.37;;;45.47;;
37903;SDS011;23738;50.422;18.758;2022-11-28T11:47:05;81.27;;;43.83;;
37903;SDS011;23738;50.422;18.758;2022-11-28T11:49:37;78.73;;;42.60;;
37903;SDS011;23738;50.422;18.758;2022-11-28T11:52:24;56.03;;;32.57;;
37903;SDS011;23738;50.422;18.758;2022-11-28T11:55:02;62.77;;;32.20;;
37903;SDS011;23738;50.422;18.758;2022-11-28T11:57:40;67.37;;;35.10;;
37903;SDS011;23738;50.422;18.758;2022-11-28T12:02:53;89.43;;;42.10;;
37903;SDS011;23738;50.422;18.758;2022-11-28T12:05:27;75.73;;;39.63;;
37903;SDS011;23738;50.422;18.758;2022-11-28T12:10:45;66.27;;;37.50;;
37903;SDS011;23738;50.422;18.758;2022-11-28T12:13:19;55.67;;;30.00;;
37903;SDS011;23738;50.422;18.758;2022-11-28T12:15:55;57.93;;;31.13;;
37903;SDS011;23738;50.422;18.758;2022-11-28T12:21:39;63.53;;;39.00;;
37903;SDS011;23738;50.422;18.758;2022-11-28T12:27:50;57.90;;;34.83;;
37903;SDS011;23738;50.422;18.758;2022-11-28T12:34:04;57.77;;;34.23;;
37903;SDS011;23738;50.422;18.758;2022-11-28T12:37:05;59.40;;;29.13;;
37903;SDS011;23738;50.422;18.758;2022-11-28T12:39:45;48.97;;;27.77;;
37903;SDS011;23738;50.422;18.758;2022-11-28T12:42:19;52.77;;;28.53;;
37903;SDS011;23738;50.422;18.758;2022-11-28T12:44:52;56.03;;;32.67;;
37903;SDS011;23738;50.422;18.758;2022-11-28T12:47:52;57.50;;;33.07;;
37903;SDS011;23738;50.422;18.758;2022-11-28T12:50:35;66.53;;;34.03;;
37903;SDS011;23738;50.422;18.758;2022-11-28T12:55:52;62.87;;;35.07;;
37903;SDS011;23738;50.422;18.758;2022-11-28T12:58:29;59.67;;;30.07;;
37903;SDS011;23738;50.422;18.758;2022-11-28T13:04:40;66.60;;;36.43;;
37903;SDS011;23738;50.422;18.758;2022-11-28T13:12:59;105.73;;;53.37;;
37903;SDS011;23738;50.422;18.758;2022-11-28T13:18:57;91.60;;;46.77;;
37903;SDS011;23738;50.422;18.758;2022-11-28T13:24:22;110.07;;;48.20;;
37903;SDS011;23738;50.422;18.758;2022-11-28T13:30:16;108.07;;;51.60;;
37903;SDS011;23738;50.422;18.758;2022-11-28T13:35:52;109.57;;;53.20;;
37903;SDS011;23738;50.422;18.758;2022-11-28T13:38:24;130.87;;;61.57;;
37903;SDS011;23738;50.422;18.758;2022-11-28T13:41:04;145.90;;;66.17;;
37903;SDS011;23738;50.422;18.758;2022-11-28T13:43:53;149.97;;;62.40;;
37903;SDS011;23738;50.422;18.758;2022-11-28T13:46:28;120.50;;;49.97;;
37903;SDS011;23738;50.422;18.758;2022-11-28T13:48:57;128.87;;;56.97;;
37903;SDS011;23738;50.422;18.758;2022-11-28T13:51:30;141.90;;;65.00;;
37903;SDS011;23738;50.422;18.758;2022-11-28T13:56:59;153.97;;;72.37;;
37903;SDS011;23738;50.422;18.758;2022-11-28T14:00:27;143.87;;;70.47;;
37903;SDS011;23738;50.422;18.758;2022-11-28T14:02:32;109.87;;;56.73;;
37903;SDS011;23738;50.422;18.758;2022-11-28T14:05:02;100.53;;;48.23;;
37903;SDS011;23738;50.422;18.758;2022-11-28T14:07:32;92.70;;;46.50;;
37903;SDS011;23738;50.422;18.758;2022-11-28T14:10:06;90.77;;;46.70;;
37903;SDS011;23738;50.422;18.758;2022-11-28T14:13:04;100.73;;;52.23;;
37903;SDS011;23738;50.422;18.758;2022-11-28T14:15:55;101.00;;;53.30;;
37903;SDS011;23738;50.422;18.758;2022-11-28T14:24:42;137.90;;;65.83;;
37903;SDS011;23738;50.422;18.758;2022-11-28T14:27:31;189.10;;;85.23;;
37903;SDS011;23738;50.422;18.758;2022-11-28T14:29:59;225.87;;;87.63;;
37903;SDS011;23738;50.422;18.758;2022-11-28T14:32:28;211.63;;;82.60;;
37903;SDS011;23738;50.422;18.758;2022-11-28T14:35:00;184.30;;;71.27;;
37903;SDS011;23738;50.422;18.758;2022-11-28T14:39:59;146.57;;;60.53;;
37903;SDS011;23738;50.422;18.758;2022-11-28T14:44:59;141.63;;;58.30;;
37903;SDS011;23738;50.422;18.758;2022-11-28T14:47:31;151.10;;;61.63;;
37903;SDS011;23738;50.422;18.758;2022-11-28T14:52:45;139.50;;;59.77;;
37903;SDS011;23738;50.422;18.758;2022-11-28T14:55:21;129.23;;;55.83;;
37903;SDS011;23738;50.422;18.758;2022-11-28T15:00:45;118.77;;;49.93;;
37903;SDS011;23738;50.422;18.758;2022-11-28T15:03:35;105.67;;;48.37;;
37903;SDS011;23738;50.422;18.758;2022-11-28T15:06:24;126.43;;;58.43;;
37903;SDS011;23738;50.422;18.758;2022-11-28T15:12:05;196.57;;;95.37;;
37903;SDS011;23738;50.422;18.758;2022-11-28T15:14:50;183.87;;;88.70;;
37903;SDS011;23738;50.422;18.758;2022-11-28T15:17:20;173.17;;;83.33;;
37903;SDS011;23738;50.422;18.758;2022-11-28T15:19:58;185.07;;;73.23;;
37903;SDS011;23738;50.422;18.758;2022-11-28T15:22:41;148.30;;;59.45;;
37903;SDS011;23738;50.422;18.758;2022-11-28T15:25:25;149.13;;;59.23;;
37903;SDS011;23738;50.422;18.758;2022-11-28T15:28:13;123.33;;;53.83;;
37903;SDS011;23738;50.422;18.758;2022-11-28T15:30:46;123.20;;;52.57;;
37903;SDS011;23738;50.422;18.758;2022-11-28T15:33:11;120.10;;;49.80;;
37903;SDS011;23738;50.422;18.758;2022-11-28T15:35:37;104.43;;;49.67;;
37903;SDS011;23738;50.422;18.758;2022-11-28T15:38:06;126.03;;;54.40;;
37903;SDS011;23738;50.422;18.758;2022-11-28T15:40:36;113.87;;;48.10;;
37903;SDS011;23738;50.422;18.758;2022-11-28T15:43:02;115.17;;;46.87;;
37903;SDS011;23738;50.422;18.758;2022-11-28T15:45:33;114.20;;;46.30;;
37903;SDS011;23738;50.422;18.758;2022-11-28T15:48:00;108.93;;;45.63;;
37903;SDS011;23738;50.422;18.758;2022-11-28T15:50:28;98.33;;;44.20;;
37903;SDS011;23738;50.422;18.758;2022-11-28T15:53:17;96.27;;;45.07;;
37903;SDS011;23738;50.422;18.758;2022-11-28T15:55:44;105.40;;;47.97;;
37903;SDS011;23738;50.422;18.758;2022-11-28T16:06:30;88.73;;;40.63;;
37903;SDS011;23738;50.422;18.758;2022-11-28T16:09:03;88.53;;;40.43;;
37903;SDS011;23738;50.422;18.758;2022-11-28T16:11:33;104.80;;;43.47;;
37903;SDS011;23738;50.422;18.758;2022-11-28T16:14:05;104.10;;;46.43;;
37903;SDS011;23738;50.422;18.758;2022-11-28T16:16:33;112.17;;;47.97;;
37903;SDS011;23738;50.422;18.758;2022-11-28T16:19:03;110.17;;;50.97;;
37903;SDS011;23738;50.422;18.758;2022-11-28T16:21:36;110.17;;;47.43;;
37903;SDS011;23738;50.422;18.758;2022-11-28T16:24:16;108.17;;;51.53;;
37903;SDS011;23738;50.422;18.758;2022-11-28T16:26:52;121.27;;;56.47;;
37903;SDS011;23738;50.422;18.758;2022-11-28T16:29:24;130.07;;;60.97;;
37903;SDS011;23738;50.422;18.758;2022-11-28T16:31:53;118.03;;;52.07;;
37903;SDS011;23738;50.422;18.758;2022-11-28T16:34:42;105.17;;;45.93;;
37903;SDS011;23738;50.422;18.758;2022-11-28T16:37:10;107.73;;;49.50;;
37903;SDS011;23738;50.422;18.758;2022-11-28T16:39:37;107.63;;;45.57;;
37903;SDS011;23738;50.422;18.758;2022-11-28T16:42:10;108.43;;;49.10;;
37903;SDS011;23738;50.422;18.758;2022-11-28T16:44:40;107.30;;;50.70;;
37903;SDS011;23738;50.422;18.758;2022-11-28T16:47:26;102.23;;;47.47;;
37903;SDS011;23738;50.422;18.758;2022-11-28T16:50:13;107.47;;;45.23;;
37903;SDS011;23738;50.422;18.758;2022-11-28T16:55:52;146.13;;;58.73;;
37903;SDS011;23738;50.422;18.758;2022-11-28T16:58:19;106.20;;;45.53;;
37903;SDS011;23738;50.422;18.758;2022-11-28T17:00:46;89.32;;;43.15;;
37903;SDS011;23738;50.422;18.758;2022-11-28T17:06:12;96.27;;;43.63;;
37903;SDS011;23738;50.422;18.758;2022-11-28T17:08:45;104.77;;;46.97;;
37903;SDS011;23738;50.422;18.758;2022-11-28T17:11:11;94.97;;;41.10;;
37903;SDS011;23738;50.422;18.758;2022-11-28T17:13:39;84.63;;;38.80;;
37903;SDS011;23738;50.422;18.758;2022-11-28T17:16:05;96.67;;;41.17;;
37903;SDS011;23738;50.422;18.758;2022-11-28T17:18:34;98.07;;;44.53;;
37903;SDS011;23738;50.422;18.758;2022-11-28T17:21:00;96.27;;;46.20;;